Overview Statistics Trail Chart Weather Telemetry Raw packets
 

This is the latest recevied weather packets stored in our database for station/object N7IGG. If no packets are shown the sender has not sent any weather packets the latest 10 day(s).

<< 78 79 80 81 82 83 84 >>
Time Temp. Humidity Pressure Rain* Wind** Luminosity Snow
1777611811 13.89° C 78% 1016.4 hPa 0 mm - 0 W/m² -
1777611508 14.44° C 77% 1016.4 hPa 0 mm - 0 W/m² -
1777611205 15° C 74% 1016.4 hPa 0 mm - 0 W/m² -
1777610901 16.11° C 70% 1016.3 hPa 0 mm - 0 W/m² -
1777610596 16.11° C 69% 1016.2 hPa 0 mm - 0 W/m² -
1777610294 16.67° C 67% 1016.2 hPa 0 mm - 0 W/m² -
1777609992 16.67° C 67% 1016.2 hPa 0 mm - 0 W/m² -
1777609689 16.67° C 68% 1016.2 hPa 0 mm - 0 W/m² -
1777609386 16.67° C 68% 1016.1 hPa 0 mm - 0 W/m² -
1777609084 16.67° C 68% 1016.1 hPa 0 mm - 0 W/m² -
1777608780 16.11° C 69% 1016.1 hPa 0 mm - 0 W/m² -
1777608476 16.67° C 69% 1015.9 hPa 0 mm - 0 W/m² -
1777608175 16.67° C 67% 1015.9 hPa 0 mm - 0 W/m² -
1777607871 17.22° C 67% 1015.8 hPa 0 mm - 0 W/m² -
1777607567 17.78° C 63% 1015.8 hPa 0 mm - 0 W/m² -
1777607264 17.78° C 62% 1015.6 hPa 0 mm - 0 W/m² -
1777606960 17.78° C 62% 1015.6 hPa 0 mm - 0 W/m² -
1777606656 17.78° C 62% 1015.7 hPa 0 mm - 0 W/m² -
1777606352 17.78° C 62% 1015.7 hPa 0 mm - 0 W/m² -
1777606052 17.78° C 62% 1015.7 hPa 0 mm - 0 W/m² -
1777605748 18.33° C 63% 1015.7 hPa 0 mm - 0 W/m² -
1777605446 18.33° C 63% 1015.8 hPa 0 mm - 0 W/m² -
1777605145 18.89° C 62% 1015.5 hPa 0 mm - 2 W/m² -
1777604839 18.89° C 62% 1015.6 hPa 0 mm - 6 W/m² -
1777604536 18.89° C 64% 1015.6 hPa 0 mm - 10 W/m² -

* Rain latest hour (hover to see other rain measurements)
** Current wind speed in m/s (hover to see current wind gust speed)